Terminal Aerodrome Forecast
Issued by NWS

Home | Current Version | Previous Version | Text Only | Print | Product List | Glossary On
Versions: 1 2 3 4 5 6 7 8 9 10 11 12 13 14 15 16 17 18 19 20
000
FTAK31 PAJN 311700
TAFAWG
TAF
PAWG 311721Z 3118/0118 09005KT P6SM SCT045 SCT200
     FM312100 07011KT P6SM SCT200
     FM010600 08009G17KT P6SM SCT200 WS020/06025KT
     FM011500 08015G25KT P6SM SCT100 BKN200 WS020/06035KT
      AMD LTD TO CLD VIS AND WIND 0106/0115=

USA.gov is the U.S. government's official web portal to all federal, state and local government web resources and services.